sensor_id;sensor_type;location;lat;lon;timestamp;temperature;humidity
40538;DHT22;27925;41.874;12.526;2023-05-06T00:02:16;18.50;87.60
40538;DHT22;27925;41.874;12.526;2023-05-06T00:04:41;18.50;87.50
40538;DHT22;27925;41.874;12.526;2023-05-06T00:07:07;18.50;87.90
40538;DHT22;27925;41.874;12.526;2023-05-06T00:09:33;18.50;88.20
40538;DHT22;27925;41.874;12.526;2023-05-06T00:11:59;18.50;88.00
40538;DHT22;27925;41.874;12.526;2023-05-06T00:14:25;18.40;88.20
40538;DHT22;27925;41.874;12.526;2023-05-06T00:16:50;18.40;88.30
40538;DHT22;27925;41.874;12.526;2023-05-06T00:19:16;18.40;88.60
40538;DHT22;27925;41.874;12.526;2023-05-06T00:21:42;18.40;88.90
40538;DHT22;27925;41.874;12.526;2023-05-06T00:24:07;18.40;89.00
40538;DHT22;27925;41.874;12.526;2023-05-06T00:26:33;18.40;89.10
40538;DHT22;27925;41.874;12.526;2023-05-06T00:28:59;18.30;89.20
40538;DHT22;27925;41.874;12.526;2023-05-06T00:31:24;18.30;89.40
40538;DHT22;27925;41.874;12.526;2023-05-06T00:33:50;18.30;89.70
40538;DHT22;27925;41.874;12.526;2023-05-06T00:36:16;18.30;89.90
40538;DHT22;27925;41.874;12.526;2023-05-06T00:38:42;18.30;90.00
40538;DHT22;27925;41.874;12.526;2023-05-06T00:41:08;18.20;90.10
40538;DHT22;27925;41.874;12.526;2023-05-06T00:43:34;18.20;90.10
40538;DHT22;27925;41.874;12.526;2023-05-06T00:46:00;18.20;90.30
40538;DHT22;27925;41.874;12.526;2023-05-06T00:48:25;18.20;90.30
40538;DHT22;27925;41.874;12.526;2023-05-06T00:50:51;18.20;90.30
40538;DHT22;27925;41.874;12.526;2023-05-06T00:53:19;18.20;90.30
40538;DHT22;27925;41.874;12.526;2023-05-06T00:55:49;18.20;90.40
40538;DHT22;27925;41.874;12.526;2023-05-06T00:58:17;18.20;90.60
40538;DHT22;27925;41.874;12.526;2023-05-06T01:00:43;18.10;90.60
40538;DHT22;27925;41.874;12.526;2023-05-06T01:03:09;18.10;90.80
40538;DHT22;27925;41.874;12.526;2023-05-06T01:06:18;18.10;90.90
40538;DHT22;27925;41.874;12.526;2023-05-06T01:09:09;18.10;90.90
40538;DHT22;27925;41.874;12.526;2023-05-06T01:11:49;18.10;91.20
40538;DHT22;27925;41.874;12.526;2023-05-06T01:14:20;18.00;91.00
40538;DHT22;27925;41.874;12.526;2023-05-06T01:16:54;18.00;91.10
40538;DHT22;27925;41.874;12.526;2023-05-06T01:19:47;18.00;91.10
40538;DHT22;27925;41.874;12.526;2023-05-06T01:22:14;18.10;91.20
40538;DHT22;27925;41.874;12.526;2023-05-06T01:24:42;18.00;91.30
40538;DHT22;27925;41.874;12.526;2023-05-06T01:27:09;18.00;91.40
40538;DHT22;27925;41.874;12.526;2023-05-06T01:29:37;18.00;91.60
40538;DHT22;27925;41.874;12.526;2023-05-06T01:37:53;18.00;92.10
40538;DHT22;27925;41.874;12.526;2023-05-06T01:40:23;18.00;92.10
40538;DHT22;27925;41.874;12.526;2023-05-06T01:42:50;18.00;92.10
40538;DHT22;27925;41.874;12.526;2023-05-06T01:45:17;17.90;92.20
40538;DHT22;27925;41.874;12.526;2023-05-06T01:47:45;18.00;92.30
40538;DHT22;27925;41.874;12.526;2023-05-06T01:50:11;17.90;92.40
40538;DHT22;27925;41.874;12.526;2023-05-06T01:52:37;17.90;92.60
40538;DHT22;27925;41.874;12.526;2023-05-06T01:55:03;17.90;92.80
40538;DHT22;27925;41.874;12.526;2023-05-06T01:57:29;17.90;92.80
40538;DHT22;27925;41.874;12.526;2023-05-06T01:59:54;17.90;92.90
40538;DHT22;27925;41.874;12.526;2023-05-06T02:02:20;17.90;93.00
40538;DHT22;27925;41.874;12.526;2023-05-06T02:04:46;17.90;93.10
40538;DHT22;27925;41.874;12.526;2023-05-06T02:07:11;17.90;93.10
40538;DHT22;27925;41.874;12.526;2023-05-06T02:09:37;17.90;93.20
40538;DHT22;27925;41.874;12.526;2023-05-06T02:12:03;17.90;93.20
40538;DHT22;27925;41.874;12.526;2023-05-06T02:14:28;17.90;93.30
40538;DHT22;27925;41.874;12.526;2023-05-06T02:16:55;17.90;93.40
40538;DHT22;27925;41.874;12.526;2023-05-06T02:19:20;17.90;93.50
40538;DHT22;27925;41.874;12.526;2023-05-06T02:21:46;17.90;93.50
40538;DHT22;27925;41.874;12.526;2023-05-06T02:24:12;17.90;93.50
40538;DHT22;27925;41.874;12.526;2023-05-06T02:26:37;17.90;93.50
40538;DHT22;27925;41.874;12.526;2023-05-06T02:29:03;17.90;93.40
40538;DHT22;27925;41.874;12.526;2023-05-06T02:31:29;17.90;93.50
40538;DHT22;27925;41.874;12.526;2023-05-06T02:33:54;18.00;93.60
40538;DHT22;27925;41.874;12.526;2023-05-06T02:36:20;18.00;93.60
40538;DHT22;27925;41.874;12.526;2023-05-06T02:38:46;17.90;93.50
40538;DHT22;27925;41.874;12.526;2023-05-06T02:41:11;17.80;93.40
40538;DHT22;27925;41.874;12.526;2023-05-06T02:43:37;17.70;93.10
40538;DHT22;27925;41.874;12.526;2023-05-06T02:46:03;17.70;93.20
40538;DHT22;27925;41.874;12.526;2023-05-06T02:48:28;17.60;92.70
40538;DHT22;27925;41.874;12.526;2023-05-06T02:50:54;17.50;92.30
40538;DHT22;27925;41.874;12.526;2023-05-06T02:53:20;17.50;92.00
40538;DHT22;27925;41.874;12.526;2023-05-06T02:55:45;17.40;91.80
40538;DHT22;27925;41.874;12.526;2023-05-06T02:58:11;17.40;91.80
40538;DHT22;27925;41.874;12.526;2023-05-06T03:00:36;17.40;91.30
40538;DHT22;27925;41.874;12.526;2023-05-06T03:03:02;17.40;91.20
40538;DHT22;27925;41.874;12.526;2023-05-06T03:05:28;17.30;90.90
40538;DHT22;27925;41.874;12.526;2023-05-06T03:07:54;17.30;90.70
40538;DHT22;27925;41.874;12.526;2023-05-06T03:10:19;17.20;90.60
40538;DHT22;27925;41.874;12.526;2023-05-06T03:12:45;17.20;90.50
40538;DHT22;27925;41.874;12.526;2023-05-06T03:15:11;17.20;90.40
40538;DHT22;27925;41.874;12.526;2023-05-06T03:17:36;17.10;90.30
40538;DHT22;27925;41.874;12.526;2023-05-06T03:20:03;17.10;90.20
40538;DHT22;27925;41.874;12.526;2023-05-06T03:22:29;17.20;90.20
40538;DHT22;27925;41.874;12.526;2023-05-06T03:24:54;17.30;90.10
40538;DHT22;27925;41.874;12.526;2023-05-06T03:27:20;17.30;90.00
40538;DHT22;27925;41.874;12.526;2023-05-06T12:56:51;28.00;48.10
40538;DHT22;27925;41.874;12.526;2023-05-06T12:59:16;28.00;49.20
40538;DHT22;27925;41.874;12.526;2023-05-06T13:01:42;28.00;49.20
40538;DHT22;27925;41.874;12.526;2023-05-06T13:04:08;27.90;48.20
40538;DHT22;27925;41.874;12.526;2023-05-06T13:06:33;27.90;48.10
40538;DHT22;27925;41.874;12.526;2023-05-06T13:08:59;27.90;47.40
40538;DHT22;27925;41.874;12.526;2023-05-06T13:11:25;27.80;46.50
40538;DHT22;27925;41.874;12.526;2023-05-06T13:13:52;27.70;46.20
40538;DHT22;27925;41.874;12.526;2023-05-06T13:16:17;27.60;45.80
40538;DHT22;27925;41.874;12.526;2023-05-06T13:18:43;27.70;46.00
40538;DHT22;27925;41.874;12.526;2023-05-06T13:21:09;27.70;46.60
40538;DHT22;27925;41.874;12.526;2023-05-06T13:23:34;27.70;46.50
40538;DHT22;27925;41.874;12.526;2023-05-06T13:26:02;27.80;46.50
40538;DHT22;27925;41.874;12.526;2023-05-06T13:28:30;27.70;46.30
40538;DHT22;27925;41.874;12.526;2023-05-06T13:30:56;27.80;45.70
40538;DHT22;27925;41.874;12.526;2023-05-06T13:33:22;27.80;46.10
40538;DHT22;27925;41.874;12.526;2023-05-06T13:35:47;27.80;46.00
40538;DHT22;27925;41.874;12.526;2023-05-06T13:38:13;27.90;45.70
40538;DHT22;27925;41.874;12.526;2023-05-06T13:40:39;27.90;45.80
40538;DHT22;27925;41.874;12.526;2023-05-06T13:43:04;27.80;46.40
40538;DHT22;27925;41.874;12.526;2023-05-06T13:45:32;27.80;46.50
40538;DHT22;27925;41.874;12.526;2023-05-06T13:47:58;27.80;46.30
40538;DHT22;27925;41.874;12.526;2023-05-06T13:50:23;27.80;47.50
40538;DHT22;27925;41.874;12.526;2023-05-06T13:52:49;27.80;47.30
40538;DHT22;27925;41.874;12.526;2023-05-06T13:55:15;27.80;47.30
40538;DHT22;27925;41.874;12.526;2023-05-06T13:57:41;27.90;47.50
40538;DHT22;27925;41.874;12.526;2023-05-06T14:00:07;27.80;46.90
40538;DHT22;27925;41.874;12.526;2023-05-06T14:02:34;27.80;46.60
40538;DHT22;27925;41.874;12.526;2023-05-06T14:05:00;27.80;47.00
40538;DHT22;27925;41.874;12.526;2023-05-06T14:07:27;27.80;46.80
40538;DHT22;27925;41.874;12.526;2023-05-06T14:09:52;27.90;46.60
40538;DHT22;27925;41.874;12.526;2023-05-06T14:12:18;27.80;46.40
40538;DHT22;27925;41.874;12.526;2023-05-06T14:14:44;27.80;46.90
40538;DHT22;27925;41.874;12.526;2023-05-06T14:17:09;27.80;47.20
40538;DHT22;27925;41.874;12.526;2023-05-06T14:19:35;27.80;47.00
40538;DHT22;27925;41.874;12.526;2023-05-06T14:22:01;27.80;46.50
40538;DHT22;27925;41.874;12.526;2023-05-06T14:24:26;27.80;46.60
40538;DHT22;27925;41.874;12.526;2023-05-06T14:26:52;27.80;46.80
40538;DHT22;27925;41.874;12.526;2023-05-06T14:29:18;27.70;47.70
40538;DHT22;27925;41.874;12.526;2023-05-06T14:31:44;27.60;47.30
40538;DHT22;27925;41.874;12.526;2023-05-06T14:34:09;27.60;47.70
40538;DHT22;27925;41.874;12.526;2023-05-06T14:36:35;27.60;48.30
40538;DHT22;27925;41.874;12.526;2023-05-06T14:39:01;27.60;47.80
40538;DHT22;27925;41.874;12.526;2023-05-06T14:41:27;27.60;48.00
40538;DHT22;27925;41.874;12.526;2023-05-06T14:43:52;27.60;48.10
40538;DHT22;27925;41.874;12.526;2023-05-06T14:46:18;27.60;47.60
40538;DHT22;27925;41.874;12.526;2023-05-06T14:48:44;27.60;47.20
40538;DHT22;27925;41.874;12.526;2023-05-06T14:51:10;27.50;47.30
40538;DHT22;27925;41.874;12.526;2023-05-06T14:53:35;27.50;47.70
40538;DHT22;27925;41.874;12.526;2023-05-06T14:56:01;27.50;48.10
40538;DHT22;27925;41.874;12.526;2023-05-06T14:58:26;27.40;47.50
40538;DHT22;27925;41.874;12.526;2023-05-06T15:00:52;27.40;47.40
40538;DHT22;27925;41.874;12.526;2023-05-06T15:03:18;27.30;47.60
40538;DHT22;27925;41.874;12.526;2023-05-06T15:05:43;27.30;48.00
40538;DHT22;27925;41.874;12.526;2023-05-06T15:08:09;27.30;48.50
40538;DHT22;27925;41.874;12.526;2023-05-06T15:10:35;27.30;48.10
40538;DHT22;27925;41.874;12.526;2023-05-06T15:13:00;27.20;47.90
40538;DHT22;27925;41.874;12.526;2023-05-06T15:15:26;27.30;47.90
40538;DHT22;27925;41.874;12.526;2023-05-06T15:17:52;27.30;47.90
40538;DHT22;27925;41.874;12.526;2023-05-06T15:20:17;27.30;48.20
40538;DHT22;27925;41.874;12.526;2023-05-06T15:22:43;27.30;48.10
40538;DHT22;27925;41.874;12.526;2023-05-06T15:25:09;27.30;48.20
40538;DHT22;27925;41.874;12.526;2023-05-06T15:27:35;27.30;47.40
40538;DHT22;27925;41.874;12.526;2023-05-06T15:30:02;27.20;47.70
40538;DHT22;27925;41.874;12.526;2023-05-06T15:32:29;27.20;48.10
40538;DHT22;27925;41.874;12.526;2023-05-06T15:34:55;27.20;48.00
40538;DHT22;27925;41.874;12.526;2023-05-06T15:37:21;27.00;47.80
40538;DHT22;27925;41.874;12.526;2023-05-06T15:39:48;27.00;47.50
40538;DHT22;27925;41.874;12.526;2023-05-06T15:42:15;26.90;47.50
40538;DHT22;27925;41.874;12.526;2023-05-06T15:44:41;26.90;47.80
40538;DHT22;27925;41.874;12.526;2023-05-06T15:47:07;26.90;47.50
40538;DHT22;27925;41.874;12.526;2023-05-06T15:49:32;26.80;47.10
40538;DHT22;27925;41.874;12.526;2023-05-06T15:51:58;26.80;47.10
40538;DHT22;27925;41.874;12.526;2023-05-06T15:54:24;26.80;47.10
40538;DHT22;27925;41.874;12.526;2023-05-06T15:56:50;26.80;47.10
40538;DHT22;27925;41.874;12.526;2023-05-06T15:59:15;26.80;47.10
40538;DHT22;27925;41.874;12.526;2023-05-06T16:01:41;26.80;46.70
40538;DHT22;27925;41.874;12.526;2023-05-06T16:04:08;26.80;46.10
40538;DHT22;27925;41.874;12.526;2023-05-06T16:06:33;26.70;46.10
40538;DHT22;27925;41.874;12.526;2023-05-06T16:08:59;26.70;46.30
40538;DHT22;27925;41.874;12.526;2023-05-06T16:11:25;26.60;46.20
40538;DHT22;27925;41.874;12.526;2023-05-06T16:13:50;26.60;46.30
40538;DHT22;27925;41.874;12.526;2023-05-06T16:16:16;26.60;46.70
40538;DHT22;27925;41.874;12.526;2023-05-06T16:18:42;26.50;46.80
40538;DHT22;27925;41.874;12.526;2023-05-06T16:21:07;26.40;46.80
40538;DHT22;27925;41.874;12.526;2023-05-06T16:23:35;26.40;47.30
40538;DHT22;27925;41.874;12.526;2023-05-06T16:26:00;26.30;47.20
40538;DHT22;27925;41.874;12.526;2023-05-06T16:28:27;26.30;46.90
40538;DHT22;27925;41.874;12.526;2023-05-06T16:30:53;26.20;47.10
40538;DHT22;27925;41.874;12.526;2023-05-06T16:33:18;26.10;47.40
40538;DHT22;27925;41.874;12.526;2023-05-06T16:35:44;26.10;47.70
40538;DHT22;27925;41.874;12.526;2023-05-06T16:38:10;26.10;48.10
40538;DHT22;27925;41.874;12.526;2023-05-06T16:40:46;26.00;48.20
40538;DHT22;27925;41.874;12.526;2023-05-06T16:43:12;26.00;48.60
40538;DHT22;27925;41.874;12.526;2023-05-06T16:45:38;26.00;48.90
40538;DHT22;27925;41.874;12.526;2023-05-06T16:48:10;25.90;48.60
40538;DHT22;27925;41.874;12.526;2023-05-06T16:50:36;25.90;49.00
40538;DHT22;27925;41.874;12.526;2023-05-06T16:53:02;25.90;49.20
40538;DHT22;27925;41.874;12.526;2023-05-06T16:55:28;25.80;49.50
40538;DHT22;27925;41.874;12.526;2023-05-06T16:57:53;25.80;49.60
40538;DHT22;27925;41.874;12.526;2023-05-06T17:00:19;25.70;49.90
40538;DHT22;27925;41.874;12.526;2023-05-06T17:02:45;25.60;50.40
40538;DHT22;27925;41.874;12.526;2023-05-06T17:05:11;25.50;50.60
40538;DHT22;27925;41.874;12.526;2023-05-06T17:07:37;25.50;50.60
40538;DHT22;27925;41.874;12.526;2023-05-06T17:10:04;25.40;51.00
40538;DHT22;27925;41.874;12.526;2023-05-06T17:12:30;25.30;50.80
40538;DHT22;27925;41.874;12.526;2023-05-06T17:14:56;25.20;51.20
40538;DHT22;27925;41.874;12.526;2023-05-06T17:17:22;25.10;51.30
40538;DHT22;27925;41.874;12.526;2023-05-06T17:19:53;25.00;51.60
40538;DHT22;27925;41.874;12.526;2023-05-06T17:22:20;25.00;51.90
40538;DHT22;27925;41.874;12.526;2023-05-06T17:24:46;24.90;52.30
40538;DHT22;27925;41.874;12.526;2023-05-06T17:27:12;24.80;52.80
40538;DHT22;27925;41.874;12.526;2023-05-06T17:29:37;24.70;53.00
40538;DHT22;27925;41.874;12.526;2023-05-06T17:32:03;24.60;53.70
40538;DHT22;27925;41.874;12.526;2023-05-06T17:34:29;24.50;53.90
40538;DHT22;27925;41.874;12.526;2023-05-06T17:36:55;24.40;54.60
40538;DHT22;27925;41.874;12.526;2023-05-06T17:39:21;24.30;55.10
40538;DHT22;27925;41.874;12.526;2023-05-06T17:41:47;24.20;55.60
40538;DHT22;27925;41.874;12.526;2023-05-06T17:44:13;24.10;55.90
40538;DHT22;27925;41.874;12.526;2023-05-06T17:46:42;24.10;56.10
40538;DHT22;27925;41.874;12.526;2023-05-06T17:49:10;23.90;56.30
40538;DHT22;27925;41.874;12.526;2023-05-06T17:51:35;23.80;56.70
40538;DHT22;27925;41.874;12.526;2023-05-06T17:54:01;23.70;56.80
40538;DHT22;27925;41.874;12.526;2023-05-06T17:56:27;23.70;56.90
40538;DHT22;27925;41.874;12.526;2023-05-06T17:58:53;23.50;57.30
40538;DHT22;27925;41.874;12.526;2023-05-06T18:01:18;23.40;58.30
40538;DHT22;27925;41.874;12.526;2023-05-06T18:03:44;23.40;58.00
40538;DHT22;27925;41.874;12.526;2023-05-06T18:06:10;23.30;58.50
40538;DHT22;27925;41.874;12.526;2023-05-06T18:08:36;23.20;59.10
40538;DHT22;27925;41.874;12.526;2023-05-06T18:11:02;23.20;59.40
40538;DHT22;27925;41.874;12.526;2023-05-06T18:13:28;23.10;59.70
40538;DHT22;27925;41.874;12.526;2023-05-06T18:15:53;23.10;59.60
40538;DHT22;27925;41.874;12.526;2023-05-06T18:18:19;23.00;60.10
40538;DHT22;27925;41.874;12.526;2023-05-06T18:20:45;23.00;60.20
40538;DHT22;27925;41.874;12.526;2023-05-06T18:23:10;23.00;60.40
40538;DHT22;27925;41.874;12.526;2023-05-06T18:25:36;22.90;60.20
40538;DHT22;27925;41.874;12.526;2023-05-06T18:28:01;22.90;60.70
40538;DHT22;27925;41.874;12.526;2023-05-06T18:30:29;22.80;60.70
40538;DHT22;27925;41.874;12.526;2023-05-06T18:32:55;22.80;60.90
40538;DHT22;27925;41.874;12.526;2023-05-06T18:35:20;22.70;60.90
40538;DHT22;27925;41.874;12.526;2023-05-06T18:37:46;22.60;61.30
40538;DHT22;27925;41.874;12.526;2023-05-06T18:40:13;22.50;61.60
40538;DHT22;27925;41.874;12.526;2023-05-06T18:42:38;22.40;62.10
40538;DHT22;27925;41.874;12.526;2023-05-06T18:45:05;22.40;62.60
40538;DHT22;27925;41.874;12.526;2023-05-06T21:29:45;20.10;81.70
40538;DHT22;27925;41.874;12.526;2023-05-06T21:32:11;20.10;81.00
40538;DHT22;27925;41.874;12.526;2023-05-06T21:34:36;20.10;81.20
40538;DHT22;27925;41.874;12.526;2023-05-06T21:37:02;20.10;81.30
40538;DHT22;27925;41.874;12.526;2023-05-06T21:39:28;20.10;81.60
40538;DHT22;27925;41.874;12.526;2023-05-06T21:41:53;20.10;81.60
40538;DHT22;27925;41.874;12.526;2023-05-06T21:44:19;20.10;81.90
40538;DHT22;27925;41.874;12.526;2023-05-06T21:46:45;20.10;82.00
40538;DHT22;27925;41.874;12.526;2023-05-06T21:49:10;20.00;81.80
40538;DHT22;27925;41.874;12.526;2023-05-06T21:51:36;20.00;81.90
40538;DHT22;27925;41.874;12.526;2023-05-06T21:54:02;20.00;82.40
40538;DHT22;27925;41.874;12.526;2023-05-06T21:56:27;19.90;82.40
40538;DHT22;27925;41.874;12.526;2023-05-06T21:58:54;19.90;82.40
40538;DHT22;27925;41.874;12.526;2023-05-06T22:01:23;19.90;82.60
40538;DHT22;27925;41.874;12.526;2023-05-06T22:03:53;19.90;82.50
40538;DHT22;27925;41.874;12.526;2023-05-06T22:06:19;19.90;82.60
40538;DHT22;27925;41.874;12.526;2023-05-06T22:08:45;19.80;82.70
40538;DHT22;27925;41.874;12.526;2023-05-06T22:11:11;19.80;82.70
40538;DHT22;27925;41.874;12.526;2023-05-06T22:13:37;19.80;83.10
40538;DHT22;27925;41.874;12.526;2023-05-06T22:16:03;19.80;83.10
40538;DHT22;27925;41.874;12.526;2023-05-06T22:18:29;19.70;83.30
40538;DHT22;27925;41.874;12.526;2023-05-06T22:20:55;19.70;83.60
40538;DHT22;27925;41.874;12.526;2023-05-06T22:23:22;19.70;83.80
40538;DHT22;27925;41.874;12.526;2023-05-06T22:25:49;19.60;83.70
40538;DHT22;27925;41.874;12.526;2023-05-06T22:28:17;19.60;84.00
40538;DHT22;27925;41.874;12.526;2023-05-06T22:30:42;19.60;84.20
40538;DHT22;27925;41.874;12.526;2023-05-06T22:33:08;19.60;84.40
40538;DHT22;27925;41.874;12.526;2023-05-06T22:35:33;19.50;84.40
40538;DHT22;27925;41.874;12.526;2023-05-06T22:37:59;19.50;84.60
40538;DHT22;27925;41.874;12.526;2023-05-06T22:40:25;19.50;84.70
40538;DHT22;27925;41.874;12.526;2023-05-06T22:42:52;19.50;84.80
40538;DHT22;27925;41.874;12.526;2023-05-06T22:45:18;19.50;84.90
40538;DHT22;27925;41.874;12.526;2023-05-06T22:47:43;19.50;85.10
40538;DHT22;27925;41.874;12.526;2023-05-06T22:50:09;19.40;85.10
40538;DHT22;27925;41.874;12.526;2023-05-06T22:52:35;19.40;85.40
40538;DHT22;27925;41.874;12.526;2023-05-06T22:55:02;19.40;85.40
40538;DHT22;27925;41.874;12.526;2023-05-06T22:57:28;19.40;85.40
40538;DHT22;27925;41.874;12.526;2023-05-06T22:59:54;19.40;85.80
40538;DHT22;27925;41.874;12.526;2023-05-06T23:02:20;19.50;85.80
40538;DHT22;27925;41.874;12.526;2023-05-06T23:04:46;19.40;85.60
40538;DHT22;27925;41.874;12.526;2023-05-06T23:07:11;19.40;85.80
40538;DHT22;27925;41.874;12.526;2023-05-06T23:09:38;19.40;85.80
40538;DHT22;27925;41.874;12.526;2023-05-06T23:12:04;19.40;86.30
40538;DHT22;27925;41.874;12.526;2023-05-06T23:14:30;19.40;86.10
40538;DHT22;27925;41.874;12.526;2023-05-06T23:16:56;19.40;86.10
40538;DHT22;27925;41.874;12.526;2023-05-06T23:19:21;19.40;86.10
40538;DHT22;27925;41.874;12.526;2023-05-06T23:21:47;19.40;86.30
40538;DHT22;27925;41.874;12.526;2023-05-06T23:24:13;19.40;86.30
40538;DHT22;27925;41.874;12.526;2023-05-06T23:26:38;19.30;86.30
40538;DHT22;27925;41.874;12.526;2023-05-06T23:29:04;19.30;86.40
40538;DHT22;27925;41.874;12.526;2023-05-06T23:31:30;19.30;86.70
40538;DHT22;27925;41.874;12.526;2023-05-06T23:33:55;19.30;86.90
40538;DHT22;27925;41.874;12.526;2023-05-06T23:36:21;19.20;87.00
40538;DHT22;27925;41.874;12.526;2023-05-06T23:38:47;19.20;87.00
40538;DHT22;27925;41.874;12.526;2023-05-06T23:41:12;19.20;87.20
40538;DHT22;27925;41.874;12.526;2023-05-06T23:43:38;19.20;87.30
40538;DHT22;27925;41.874;12.526;2023-05-06T23:46:03;19.20;87.30
40538;DHT22;27925;41.874;12.526;2023-05-06T23:48:29;19.20;87.40
40538;DHT22;27925;41.874;12.526;2023-05-06T23:50:55;19.20;87.70
40538;DHT22;27925;41.874;12.526;2023-05-06T23:53:20;19.20;87.80
40538;DHT22;27925;41.874;12.526;2023-05-06T23:55:46;19.20;87.80
40538;DHT22;27925;41.874;12.526;2023-05-06T23:58:12;19.20;87.80
